Airfield :
LOGIN :

Register | Disclaimer

   EN    FR    IT 

 










Legend :    VFR   Marginal VFR   IFR   Intensive IFR   Very Intensive IFR
Visi :
Ceiling :
>= 8 km
>= 3000ft
5 to 8 km
1000 to 3000 ft
1500m to 5 km
500 to 1000 ft
800 to 1500m
200 to 500 ft
< 800m
< 200 ft
Symbols :   Thunderstorms  Fog  Heavy snow  Heavy precipitations  Wind > 20 kt
SIGMETs :     Misc.  Thunderstorms  Icing  Turbulence  Mountain Waves  Volcanic Ashes






- Airport Elevation : 233 ft
- IATA code : REU


LERS - Reus Tarragona

CURRENT METAR :
  • 300100Z AUTO 02004KT CAVOK 08/07 Q1020

EXPIRED METARs :
  • 300030Z AUTO 02005KT CAVOK 09/07 Q1020
  • 300000Z AUTO 02006KT CAVOK 09/07 Q1020
  • 292330Z AUTO 02004KT CAVOK 09/07 Q1020
  • 292300Z AUTO 02005KT CAVOK 09/08 Q1020
  • 292230Z AUTO 03005KT CAVOK 09/08 Q1019
  • 292200Z AUTO VRB02KT CAVOK 09/07 Q1019

TAF TAF LERS
Valid from the 29 at 21:00 until the 30 at 21:00 UTC


292000Z 2921/3021 VRB05KT 9999 FEW030 TX17/3013Z TN07/3006Z



MET'MAP, your aeronautical weather chart ! - Copyright ORBIFLY December 2007 - Disclaimer

ORBIFLY MET'MAP TEAM :

Programming & Development : Alexandra Zaïnal
Concept & original design : Baudouin d'Aumeries
Assistance for programming : Marc-Olivier Méhu
Technical & hardware support : Manuel Goepfert

Contact : metmap@orbifly.com




SOURCES & CREDITS :

   NOAA